Time;durP1;ratioP1;P1;durP2;ratioP2;P2;SDS_P1;SDS_P2;PMS_P1;PMS_P2;Temp;Humidity;BMP_temperature;BMP_pressure;BME280_temperature;BME280_humidity;BME280_pressure;Samples;Min_cycle;Max_cycle;Signal;HPM_P1;HPM_P2
2021/01/25 00:01:52;;;;;;;38.85;22.17;;;;;;;2.36;73.10;98172.00;5037007;28;20045;-81
2021/01/25 00:04:18;;;;;;;40.35;23.17;;;;;;;2.35;73.23;98171.16;5053725;28;20132;-81
2021/01/25 00:06:45;;;;;;;37.85;21.90;;;;;;;2.34;72.90;98172.09;5053814;28;20049;-82
2021/01/25 00:09:11;;;;;;;40.83;22.35;;;;;;;2.33;73.12;98178.19;5053798;28;20090;-82
2021/01/25 00:11:37;;;;;;;38.92;22.20;;;;;;;2.32;73.14;98172.16;5053716;28;20057;-81
2021/01/25 00:14:05;;;;;;;41.95;22.98;;;;;;;2.32;73.07;98171.34;5053594;28;20052;-82
2021/01/25 00:16:31;;;;;;;42.10;23.20;;;;;;;2.31;72.90;98172.22;5053453;28;20409;-82
2021/01/25 00:18:57;;;;;;;35.05;20.75;;;;;;;2.30;72.77;98170.56;5053161;28;20559;-82
2021/01/25 00:21:23;;;;;;;36.65;21.38;;;;;;;2.29;72.71;98174.06;5053592;28;20049;-82
2021/01/25 00:23:49;;;;;;;37.75;22.67;;;;;;;2.30;72.88;98173.16;5053539;28;20056;-81
2021/01/25 00:26:15;;;;;;;43.85;23.75;;;;;;;2.29;73.05;98174.94;5053900;28;20075;-81
2021/01/25 00:28:41;;;;;;;38.72;22.30;;;;;;;2.28;72.60;98178.41;5053400;28;20076;-81
2021/01/25 00:31:07;;;;;;;40.92;23.13;;;;;;;2.28;72.54;98180.19;5053318;28;20067;-81
2021/01/25 00:33:33;;;;;;;40.30;22.00;;;;;;;2.26;73.03;98167.28;5053370;28;20049;-81
2021/01/25 00:36:00;;;;;;;38.85;22.48;;;;;;;2.26;73.04;98176.81;5035917;28;20053;-81
2021/01/25 00:38:26;;;;;;;37.40;22.33;;;;;;;2.25;72.59;98175.13;5053428;28;20045;-82
2021/01/25 00:40:52;;;;;;;42.03;21.63;;;;;;;2.24;72.68;98174.28;5053249;28;20493;-81
2021/01/25 00:43:18;;;;;;;35.20;21.70;;;;;;;2.24;72.34;98178.66;5035239;28;20485;-81
2021/01/25 00:45:45;;;;;;;36.53;20.15;;;;;;;2.24;73.14;98178.66;5053694;28;20052;-82
2021/01/25 00:48:11;;;;;;;37.63;20.75;;;;;;;2.24;72.60;98176.88;5053084;28;20057;-82
2021/01/25 00:50:37;;;;;;;35.10;20.33;;;;;;;2.24;72.81;98176.88;5035232;28;20060;-81
2021/01/25 00:53:03;;;;;;;37.25;21.00;;;;;;;2.25;72.79;98178.59;5053012;28;20053;-82
2021/01/25 00:55:29;;;;;;;33.72;20.27;;;;;;;2.25;72.82;98178.59;5053330;28;20049;-82
2021/01/25 00:57:56;;;;;;;36.17;19.25;;;;;;;2.26;72.88;98172.47;5053319;28;20111;-82
2021/01/25 01:00:22;;;;;;;38.20;20.13;;;;;;;2.27;72.73;98178.47;5053809;28;20056;-82
2021/01/25 01:02:48;;;;;;;33.50;20.50;;;;;;;2.28;72.41;98175.00;5053315;28;20056;-81
2021/01/25 01:05:14;;;;;;;38.60;20.80;;;;;;;2.28;72.98;98172.41;5053141;28;20098;-81
2021/01/25 01:07:41;;;;;;;41.55;22.08;;;;;;;2.28;73.01;98172.41;5035559;28;20106;-81
2021/01/25 01:10:07;;;;;;;40.75;21.30;;;;;;;2.26;72.90;98171.63;5053015;28;20045;-82
2021/01/25 01:12:34;;;;;;;34.45;19.95;;;;;;;2.26;72.63;98174.22;5053138;28;20157;-81
2021/01/25 01:15:00;;;;;;;31.95;19.20;;;;;;;2.25;72.40;98175.13;5052938;28;20102;-81
2021/01/25 01:17:26;;;;;;;36.92;20.95;;;;;;;2.24;72.44;98171.69;5053095;28;20053;-81
2021/01/25 01:19:53;;;;;;;34.70;19.48;;;;;;;2.21;72.95;98177.88;5052766;28;20493;-81
2021/01/25 01:22:19;;;;;;;36.65;19.73;;;;;;;2.22;72.43;98176.94;5052841;28;20057;-80
2021/01/25 01:24:45;;;;;;;32.45;19.38;;;;;;;2.22;73.13;98171.75;5053150;28;20053;-82
2021/01/25 01:27:11;;;;;;;29.20;17.92;;;;;;;2.22;72.82;98173.53;5053274;28;20060;-82
2021/01/25 01:29:37;;;;;;;30.83;18.73;;;;;;;2.22;72.36;98171.75;5052740;28;20048;-81
2021/01/25 01:32:03;;;;;;;31.33;18.20;;;;;;;2.25;72.63;98169.94;5055394;28;20052;-79
2021/01/25 01:34:30;;;;;;;39.65;19.42;;;;;;;2.25;72.49;98177.72;5056483;28;20049;-80
2021/01/25 01:36:56;;;;;;;30.60;18.42;;;;;;;2.26;72.35;98176.81;5056716;28;20049;-80
2021/01/25 01:39:22;;;;;;;34.55;19.15;;;;;;;2.27;72.25;98173.28;5056765;28;20049;-81
2021/01/25 01:41:48;;;;;;;30.98;17.85;;;;;;;2.28;72.09;98175.00;5056570;28;20456;-82
2021/01/25 01:44:14;;;;;;;29.52;17.25;;;;;;;2.30;72.38;98178.34;5056117;28;20131;-81
2021/01/25 01:46:42;;;;;;;29.67;17.50;;;;;;;2.31;72.34;98180.00;5056488;28;20464;-81
2021/01/25 01:49:11;;;;;;;32.75;16.75;;;;;;;2.32;72.34;98176.53;5056538;28;20110;-81
2021/01/25 01:51:38;;;;;;;28.58;16.08;;;;;;;2.33;72.29;98173.81;5056380;28;20080;-81
2021/01/25 01:54:05;;;;;;;26.42;16.08;;;;;;;2.35;72.15;98186.75;5038506;28;20061;-81
2021/01/25 01:56:33;;;;;;;31.77;17.20;;;;;;;2.36;72.31;98183.25;5056154;28;20056;-82
2021/01/25 01:58:59;;;;;;;27.10;15.65;;;;;;;2.36;71.88;98183.25;5055964;28;20045;-82
2021/01/25 02:01:25;;;;;;;29.48;15.80;;;;;;;2.34;71.71;98175.53;5056172;28;20063;-81
2021/01/25 02:03:53;;;;;;;28.40;15.90;;;;;;;2.33;71.85;98173.81;5055949;28;20049;-81
2021/01/25 02:06:20;;;;;;;25.10;14.40;;;;;;;2.34;72.41;98174.69;5056071;28;20057;-81
2021/01/25 02:08:49;;;;;;;28.08;14.93;;;;;;;2.32;71.52;98181.72;5056061;28;20405;-81
2021/01/25 02:11:17;;;;;;;21.63;13.18;;;;;;;2.33;71.92;98175.59;5055641;28;20106;-82
2021/01/25 02:13:44;;;;;;;26.58;14.23;;;;;;;2.33;72.38;98173.81;5055852;28;20048;-81
2021/01/25 02:16:10;;;;;;;23.95;13.77;;;;;;;2.33;71.71;98170.41;5056087;28;20053;-82
2021/01/25 02:18:36;;;;;;;22.83;12.55;;;;;;;2.33;72.06;98173.00;5055786;28;20090;-80
2021/01/25 02:21:06;;;;;;;21.25;12.73;;;;;;;2.32;72.04;98176.53;5055649;28;20091;-80
2021/01/25 02:24:06;;;;;;;18.05;11.82;;;;;;;2.29;71.46;98177.53;5037832;28;20107;-81
2021/01/25 02:26:53;;;;;;;21.20;11.27;;;;;;;2.30;71.60;98175.75;5055898;28;20049;-81
2021/01/25 02:29:20;;;;;;;18.77;11.27;;;;;;;2.32;71.69;98177.34;5055589;28;20041;-81
2021/01/25 02:31:46;;;;;;;19.00;10.43;;;;;;;2.32;71.95;98173.94;5055685;28;20049;-80
2021/01/25 02:34:14;;;;;;;19.58;11.25;;;;;;;2.29;71.67;98174.94;5055141;28;20523;-82
2021/01/25 02:36:41;;;;;;;18.48;10.15;;;;;;;2.30;71.46;98180.94;5055775;28;20090;-82
2021/01/25 02:39:07;;;;;;;16.58;10.10;;;;;;;2.30;71.83;98180.94;5055590;28;20145;-82
2021/01/25 02:41:35;;;;;;;16.63;10.02;;;;;;;2.29;71.79;98179.25;5055252;28;20045;-82
2021/01/25 02:44:03;;;;;;;12.43;8.48;;;;;;;2.29;71.73;98179.25;5055292;28;20045;-81
2021/01/25 02:46:30;;;;;;;16.90;9.50;;;;;;;2.29;71.60;98179.25;5055273;28;20053;-81
2021/01/25 02:48:56;;;;;;;15.00;9.00;;;;;;;2.29;72.02;98174.94;5055105;28;20051;-81
2021/01/25 02:51:23;;;;;;;17.02;9.60;;;;;;;2.30;72.19;98181.78;5054964;28;20114;-80
2021/01/25 02:53:49;;;;;;;19.98;10.13;;;;;;;2.31;72.00;98180.00;5054798;28;20095;-81
2021/01/25 02:56:15;;;;;;;17.20;9.20;;;;;;;2.34;71.93;98179.88;5055325;28;20130;-81
2021/01/25 02:58:42;;;;;;;20.25;10.98;;;;;;;2.35;72.53;98181.56;5055306;28;20049;-82
2021/01/25 03:01:08;;;;;;;18.35;10.35;;;;;;;2.39;71.95;98179.66;5054765;28;20049;-81
2021/01/25 03:03:35;;;;;;;19.88;10.30;;;;;;;2.41;72.25;98180.41;5054930;28;20057;-82
2021/01/25 03:06:01;;;;;;;16.23;10.18;;;;;;;2.44;72.13;98181.09;5055286;28;20387;-82
2021/01/25 03:08:27;;;;;;;18.73;10.75;;;;;;;2.47;72.88;98175.75;5054753;28;20521;-82
2021/01/25 03:10:54;;;;;;;18.70;10.25;;;;;;;2.51;72.44;98178.22;5054921;28;20102;-81
2021/01/25 03:13:27;;;;;;;16.58;10.23;;;;;;;2.52;71.89;98180.75;5054532;28;20056;-82
2021/01/25 03:15:57;;;;;;;17.42;10.27;;;;;;;2.57;72.62;98180.50;5054732;28;20053;-82
2021/01/25 03:18:24;;;;;;;17.02;9.65;;;;;;;2.60;72.14;98185.53;5054435;28;20049;-82
2021/01/25 03:20:50;;;;;;;15.05;9.25;;;;;;;2.63;72.11;98180.22;5054702;28;20076;-82
2021/01/25 03:23:17;;;;;;;16.40;9.52;;;;;;;2.65;72.03;98180.13;5054400;28;20053;-82
2021/01/25 03:25:47;;;;;;;17.17;9.70;;;;;;;2.67;71.94;98179.13;5054656;28;20053;-82
2021/01/25 03:28:13;;;;;;;14.68;8.27;;;;;;;2.70;72.31;98183.34;5054485;28;20099;-81
2021/01/25 03:30:40;;;;;;;15.73;9.43;;;;;;;2.73;71.87;98184.00;5053988;28;20103;-80
2021/01/25 03:33:07;;;;;;;13.02;8.48;;;;;;;2.76;72.11;98185.63;5053097;28;20045;-79
2021/01/25 03:35:33;;;;;;;15.23;9.15;;;;;;;2.78;72.00;98188.13;5053760;28;20410;-80
2021/01/25 03:37:59;;;;;;;13.50;8.20;;;;;;;2.81;72.13;98190.59;5054549;28;20053;-80
2021/01/25 03:40:25;;;;;;;9.40;6.45;;;;;;;2.82;72.16;98189.66;5054210;28;20437;-80
2021/01/25 03:42:51;;;;;;;9.73;6.20;;;;;;;2.85;72.30;98189.53;5054033;28;20064;-81
2021/01/25 03:45:17;;;;;;;11.80;4.90;;;;;;;2.87;72.37;98192.88;5054105;28;20608;-78
2021/01/25 03:47:43;;;;;;;8.30;3.88;;;;;;;2.90;71.97;98191.88;5054626;28;20410;-81
2021/01/25 03:50:10;;;;;;;5.65;3.33;;;;;;;2.91;72.26;98196.16;5053869;28;20076;-81
2021/01/25 03:52:36;;;;;;;6.30;3.30;;;;;;;2.92;72.06;98188.28;5053683;28;20052;-81
2021/01/25 03:55:03;;;;;;;8.02;3.95;;;;;;;2.94;72.14;98190.78;5053534;28;20049;-79
2021/01/25 03:57:29;;;;;;;6.90;3.42;;;;;;;2.95;72.28;98195.91;5054098;28;20510;-81
2021/01/25 03:59:55;;;;;;;5.75;3.33;;;;;;;2.97;72.24;98199.28;5053902;28;20055;-82
2021/01/25 04:02:21;;;;;;;6.18;3.55;;;;;;;2.98;71.54;98198.38;5053760;28;20049;-82
2021/01/25 04:04:48;;;;;;;7.75;3.40;;;;;;;2.99;71.77;98199.22;5053695;28;20502;-82
2021/01/25 04:07:14;;;;;;;6.50;3.53;;;;;;;2.99;72.00;98200.03;5053877;28;20102;-82
2021/01/25 04:09:40;;;;;;;7.00;3.97;;;;;;;3.02;71.53;98206.03;5053819;28;20049;-80
2021/01/25 04:12:07;;;;;;;5.43;3.85;;;;;;;3.02;71.97;98206.03;5053552;28;20055;-81
2021/01/25 04:14:33;;;;;;;6.22;3.70;;;;;;;3.03;71.33;98212.91;5053831;28;20075;-81
2021/01/25 04:17:00;;;;;;;11.70;4.95;;;;;;;3.03;71.40;98212.91;5053684;28;20049;-82
2021/01/25 04:19:26;;;;;;;9.82;6.03;;;;;;;3.03;71.76;98220.69;5035906;28;20080;-79
2021/01/25 04:21:52;;;;;;;14.90;7.53;;;;;;;3.02;71.51;98221.63;5053707;28;20444;-80
2021/01/25 04:24:18;;;;;;;13.75;8.88;;;;;;;3.00;71.21;98225.13;5035709;28;20512;-80
2021/01/25 04:26:45;;;;;;;15.63;9.00;;;;;;;3.00;71.76;98238.09;5053777;28;20059;-80
2021/01/25 04:29:12;;;;;;;12.95;7.97;;;;;;;3.00;71.44;98230.31;5053649;28;20041;-78
2021/01/25 04:31:38;;;;;;;15.20;8.13;;;;;;;2.99;71.24;98236.44;5053938;28;20106;-81
2021/01/25 04:34:05;;;;;;;14.98;9.05;;;;;;;3.00;71.34;98232.91;5053195;28;20052;-82
2021/01/25 04:36:32;;;;;;;14.73;9.52;;;;;;;2.98;71.18;98226.13;5053466;28;20053;-82
2021/01/25 04:38:58;;;;;;;16.77;9.68;;;;;;;2.97;70.88;98237.44;5053578;28;20052;-82
2021/01/25 04:41:25;;;;;;;20.45;10.00;;;;;;;2.97;70.66;98234.84;5053442;28;20049;-82
2021/01/25 04:43:54;;;;;;;19.48;11.27;;;;;;;2.93;70.54;98239.34;5053041;28;20052;-81
2021/01/25 04:46:22;;;;;;;18.55;10.10;;;;;;;2.92;71.26;98240.25;5053336;28;20049;-82
2021/01/25 04:48:49;;;;;;;17.83;10.52;;;;;;;2.91;71.33;98237.75;5053252;28;20426;-82
2021/01/25 04:51:16;;;;;;;16.15;10.65;;;;;;;2.88;71.28;98241.34;5093560;22;20037;-80
2021/01/25 04:53:44;;;;;;;17.48;10.82;;;;;;;2.83;70.60;98241.56;5052882;28;20065;-81
2021/01/25 04:56:11;;;;;;;14.65;9.52;;;;;;;2.81;70.38;98242.56;5053023;28;20053;-80
2021/01/25 04:58:38;;;;;;;17.33;10.00;;;;;;;2.78;71.40;98238.38;5053045;28;20045;-80
2021/01/25 05:01:04;;;;;;;14.52;9.15;;;;;;;2.74;71.41;98232.47;5035250;28;20103;-80
2021/01/25 05:03:30;;;;;;;16.95;9.40;;;;;;;2.73;71.42;98235.16;5035752;28;20049;-80
2021/01/25 05:05:57;;;;;;;15.90;9.35;;;;;;;2.71;71.51;98240.44;5053932;28;20489;-80
2021/01/25 05:08:23;;;;;;;15.18;9.68;;;;;;;2.71;71.05;98240.44;5057160;28;20493;-80
2021/01/25 05:10:49;;;;;;;13.45;8.90;;;;;;;2.71;71.34;98239.56;5056828;28;20485;-80
2021/01/25 05:13:25;;;;;;;15.02;9.38;;;;;;;2.69;70.87;98244.03;5039193;28;20060;-80
2021/01/25 05:15:52;;;;;;;16.95;9.45;;;;;;;2.69;71.58;98247.44;5057059;28;20425;-79
2021/01/25 05:18:24;;;;;;;15.95;9.73;;;;;;;2.69;71.17;98246.63;5056984;28;20049;-80
2021/01/25 05:20:55;;;;;;;14.50;9.02;;;;;;;2.69;71.09;98247.44;5056699;28;20417;-80
2021/01/25 05:23:22;;;;;;;14.43;9.05;;;;;;;2.70;71.80;98249.13;5056799;28;20126;-80
2021/01/25 05:25:49;;;;;;;18.65;9.18;;;;;;;2.71;71.38;98248.22;5056926;28;20056;-80
2021/01/25 05:28:18;;;;;;;19.30;9.93;;;;;;;2.70;71.60;98251.72;5056793;28;20455;-80
2021/01/25 05:30:45;;;;;;;17.27;10.13;;;;;;;2.71;70.91;98257.75;5056504;28;20051;-80
2021/01/25 05:33:12;;;;;;;15.48;9.45;;;;;;;2.70;71.38;98248.28;5056310;28;20171;-80
2021/01/25 05:35:42;;;;;;;15.45;8.45;;;;;;;2.69;71.33;98251.81;5056729;28;20446;-80
2021/01/25 05:38:09;;;;;;;13.48;8.30;;;;;;;2.69;72.04;98257.84;5056739;28;20464;-80
2021/01/25 05:40:37;;;;;;;9.55;6.10;;;;;;;2.68;71.53;98256.16;5056421;28;20504;-80
2021/01/25 05:43:17;;;;;;;12.20;6.00;;;;;;;2.66;70.44;98265.81;5056231;28;20455;-80
2021/01/25 05:45:43;;;;;;;11.05;5.65;;;;;;;2.70;71.08;98269.06;5056212;28;20049;-80
2021/01/25 05:48:14;;;;;;;7.63;5.35;;;;;;;2.69;71.22;98268.22;5056528;28;20053;-80
2021/01/25 05:50:42;;;;;;;9.63;5.35;;;;;;;2.70;71.31;98272.50;5056148;28;20457;-80
2021/01/25 05:53:12;;;;;;;11.02;4.75;;;;;;;2.71;71.33;98270.75;5056193;28;20056;-80
2021/01/25 05:55:40;;;;;;;9.02;5.45;;;;;;;2.72;71.16;98270.69;5056308;28;20576;-80
2021/01/25 05:58:07;;;;;;;12.50;6.18;;;;;;;2.74;71.60;98271.44;5056159;28;20053;-80
2021/01/25 06:00:35;;;;;;;10.68;6.35;;;;;;;2.76;71.32;98273.13;5055983;28;20179;-80
2021/01/25 06:03:03;;;;;;;10.80;5.90;;;;;;;2.77;71.01;98277.41;5055949;28;20118;-80
2021/01/25 06:05:38;;;;;;;13.02;6.45;;;;;;;2.77;70.40;98280.00;5056440;28;20044;-80
2021/01/25 06:08:28;;;;;;;12.98;6.68;;;;;;;2.78;70.82;98284.28;5056250;28;20417;-80
2021/01/25 06:11:16;;;;;;;11.85;6.55;;;;;;;2.72;69.88;98288.88;5038128;28;20041;-79
2021/01/25 06:13:51;;;;;;;13.77;7.00;;;;;;;2.71;70.13;98291.53;5055787;28;20151;-80
2021/01/25 06:16:20;;;;;;;17.40;8.73;;;;;;;2.69;71.10;98289.00;5055529;28;20049;-80
2021/01/25 06:18:47;;;;;;;16.42;7.53;;;;;;;2.66;70.73;98289.19;5055937;28;20102;-80
2021/01/25 06:21:17;;;;;;;14.55;8.23;;;;;;;2.64;71.14;98291.00;5055807;28;20049;-80
2021/01/25 06:23:44;;;;;;;19.88;9.30;;;;;;;2.63;71.35;98291.06;5055690;28;20052;-80
2021/01/25 06:26:12;;;;;;;18.42;9.98;;;;;;;2.60;70.97;98292.91;5055737;28;20059;-80
2021/01/25 06:28:42;;;;;;;17.50;9.15;;;;;;;2.63;71.24;98304.06;5055973;28;20084;-80
2021/01/25 06:31:09;;;;;;;16.55;9.25;;;;;;;2.63;71.76;98309.25;5055398;28;20489;-80
2021/01/25 06:33:39;;;;;;;14.77;8.60;;;;;;;2.63;70.81;98310.09;5055158;28;20071;-80
2021/01/25 06:36:08;;;;;;;14.50;8.27;;;;;;;2.65;71.33;98312.63;5055835;28;20468;-80
2021/01/25 06:38:38;;;;;;;16.73;8.48;;;;;;;2.67;71.02;98311.63;5037929;28;20056;-80
2021/01/25 06:41:09;;;;;;;19.77;10.13;;;;;;;2.69;70.82;98319.38;5056406;28;20451;-80
2021/01/25 06:43:35;;;;;;;17.48;9.40;;;;;;;2.71;71.12;98318.38;5038368;28;20053;-80
2021/01/25 06:46:02;;;;;;;16.80;8.98;;;;;;;2.72;70.94;98317.44;5056299;28;20049;-81
2021/01/25 06:48:29;;;;;;;17.63;8.40;;;;;;;2.74;71.46;98317.38;5056499;28;20052;-79
2021/01/25 06:50:55;;;;;;;15.55;8.88;;;;;;;2.74;71.48;98331.19;5055634;28;20386;-79
2021/01/25 06:53:26;;;;;;;14.20;8.02;;;;;;;2.74;70.66;98328.59;5056021;28;20083;-79
2021/01/25 06:56:00;;;;;;;17.10;8.70;;;;;;;2.77;70.71;98335.44;5055973;28;20061;-80
2021/01/25 06:58:30;;;;;;;12.95;8.85;;;;;;;2.80;70.30;98347.44;5055868;28;20077;-80
2021/01/25 07:01:04;;;;;;;17.75;9.60;;;;;;;2.80;70.32;98350.03;5055668;28;20071;-79
2021/01/25 07:03:57;;;;;;;14.93;8.57;;;;;;;2.79;69.96;98350.94;5055659;28;20099;-80
2021/01/25 07:06:39;;;;;;;16.73;8.82;;;;;;;2.80;69.83;98356.06;5055792;28;20060;-80
2021/01/25 07:09:06;;;;;;;12.95;7.57;;;;;;;2.82;70.87;98364.63;5055353;28;20044;-79
2021/01/25 07:11:34;;;;;;;15.15;8.20;;;;;;;2.82;70.86;98371.56;5037243;28;20570;-80
2021/01/25 07:14:01;;;;;;;15.50;9.25;;;;;;;2.80;70.58;98371.66;5055558;28;20076;-79
2021/01/25 07:16:27;;;;;;;16.08;9.18;;;;;;;2.80;71.02;98389.84;5055240;28;20098;-79
2021/01/25 07:18:54;;;;;;;15.43;8.70;;;;;;;2.80;71.17;98395.03;5055213;28;20052;-79
2021/01/25 07:21:22;;;;;;;16.42;8.93;;;;;;;2.81;71.00;98398.50;5055109;28;20060;-79
2021/01/25 07:23:50;;;;;;;13.45;8.68;;;;;;;2.81;70.50;98401.91;5054981;28;20103;-79
2021/01/25 07:26:18;;;;;;;13.15;8.07;;;;;;;2.81;70.92;98395.88;5054886;28;20053;-79
2021/01/25 07:28:45;;;;;;;14.52;7.80;;;;;;;2.82;70.92;98397.56;5054161;28;20171;-80
2021/01/25 07:31:12;;;;;;;15.75;8.18;;;;;;;2.83;71.24;98401.84;5037597;28;20401;-79
2021/01/25 07:33:38;;;;;;;13.70;8.65;;;;;;;2.84;71.16;98406.16;5055059;28;20056;-80
2021/01/25 07:36:06;;;;;;;15.43;8.60;;;;;;;2.84;71.45;98408.75;5055052;28;20056;-80
2021/01/25 07:38:33;;;;;;;20.17;9.70;;;;;;;2.87;70.91;98411.19;5037082;28;20091;-80
2021/01/25 07:41:00;;;;;;;14.57;9.35;;;;;;;2.88;70.95;98419.84;5054718;28;20052;-79
2021/01/25 07:43:29;;;;;;;19.05;10.48;;;;;;;2.90;71.23;98421.44;5036799;28;20547;-79
2021/01/25 07:46:09;;;;;;;18.15;9.07;;;;;;;2.90;70.13;98420.59;5054559;28;20045;-80
2021/01/25 07:48:51;;;;;;;18.17;9.77;;;;;;;2.92;70.83;98422.19;5054654;28;20045;-80
2021/01/25 07:51:24;;;;;;;17.25;9.27;;;;;;;2.96;70.66;98428.94;5054235;28;20048;-79
2021/01/25 07:53:52;;;;;;;19.52;10.18;;;;;;;3.01;71.74;98428.72;5054802;28;20056;-79
2021/01/25 07:56:20;;;;;;;18.38;10.65;;;;;;;3.05;71.71;98437.22;5054543;28;20049;-79
2021/01/25 07:58:46;;;;;;;16.63;10.35;;;;;;;3.08;71.60;98440.53;5054221;28;20049;-79
2021/01/25 08:01:25;;;;;;;21.08;9.55;;;;;;;3.09;70.38;98442.22;5054185;28;20102;-80
2021/01/25 08:03:57;;;;;;;17.63;10.48;;;;;;;3.16;71.11;98447.97;5054132;28;20095;-79
2021/01/25 08:06:35;;;;;;;12.48;8.73;;;;;;;3.18;70.70;98446.13;5054251;28;20470;-79
2021/01/25 08:09:05;;;;;;;17.42;7.60;;;;;;;3.21;70.61;98448.56;5054027;28;20053;-79
2021/01/25 08:11:33;;;;;;;16.05;10.00;;;;;;;3.23;71.00;98451.97;5053823;28;20502;-79
2021/01/25 08:14:06;;;;;;;19.92;11.25;;;;;;;3.25;70.34;98451.88;5053651;28;20061;-80
2021/01/25 08:16:37;;;;;;;17.20;10.60;;;;;;;3.27;71.08;98450.03;5054262;28;20060;-79
2021/01/25 08:19:31;;;;;;;21.48;9.27;;;;;;;3.27;70.21;98450.03;5054327;28;20056;-79
2021/01/25 08:22:02;;;;;;;;;;;;;;;3.33;70.19;98454.13;5053838;28;20049;-80
2021/01/25 08:24:30;;;;;;;19.33;8.63;;;;;;;3.35;70.98;98452.28;5036340;28;19928;-79
2021/01/25 08:27:14;;;;;;;25.52;11.10;;;;;;;3.31;69.74;98458.53;5054007;28;20056;-79
2021/01/25 08:29:43;;;;;;;20.52;9.05;;;;;;;3.33;70.80;98465.34;5054026;28;20045;-79
2021/01/25 08:32:28;;;;;;;16.13;9.75;;;;;;;3.30;69.54;98470.72;5053808;28;20489;-79
2021/01/25 08:35:05;;;;;;;15.20;8.93;;;;;;;3.30;69.94;98472.47;5053675;28;20088;-79
2021/01/25 08:37:33;;;;;;;16.55;9.30;;;;;;;3.32;70.29;98478.44;5053980;28;20080;-79
2021/01/25 08:40:20;;;;;;;17.38;9.70;;;;;;;3.29;69.80;98473.38;5053239;28;20459;-79
2021/01/25 08:42:47;;;;;;;17.27;10.35;;;;;;;3.33;70.61;98485.31;5045416;28;20056;-79
2021/01/25 08:45:27;;;;;;;21.65;11.07;;;;;;;3.30;70.00;98482.88;5053777;28;20060;-79
2021/01/25 08:48:03;;;;;;;16.40;9.52;;;;;;;3.30;70.03;98490.66;5053729;28;20559;-79
2021/01/25 08:50:29;;;;;;;19.00;9.82;;;;;;;3.32;70.72;98491.47;5053699;28;20099;-79
2021/01/25 08:53:03;;;;;;;15.02;8.85;;;;;;;3.29;69.83;98492.41;5053557;28;20052;-79
2021/01/25 08:55:45;;;;;;;18.65;11.70;;;;;;;3.28;69.75;98492.50;5035918;28;20394;-79
2021/01/25 08:58:30;;;;;;;17.70;10.88;;;;;;;3.29;69.86;98499.41;5054012;28;20049;-79
2021/01/25 09:00:58;;;;;;;19.42;11.00;;;;;;;3.32;70.61;98505.28;5054241;28;20045;-80
2021/01/25 09:03:25;;;;;;;20.45;11.25;;;;;;;3.33;70.71;98506.13;5053552;28;20497;-79
2021/01/25 09:05:54;;;;;;;20.55;10.48;;;;;;;3.34;70.65;98511.28;5053676;28;20053;-79
2021/01/25 09:08:25;;;;;;;16.25;10.50;;;;;;;3.35;70.74;98512.09;5036973;28;20049;-79
2021/01/25 09:10:51;;;;;;;17.35;10.35;;;;;;;3.38;70.91;98525.81;5053653;28;20041;-80
2021/01/25 09:13:17;;;;;;;18.73;11.30;;;;;;;3.40;70.93;98512.72;5053824;28;20053;-80
2021/01/25 09:15:44;;;;;;;25.17;12.43;;;;;;;3.44;71.29;98521.22;5054059;28;20048;-79
2021/01/25 09:18:11;;;;;;;20.80;11.38;;;;;;;3.46;70.95;98525.44;5036317;28;20099;-80
2021/01/25 09:20:38;;;;;;;20.75;12.15;;;;;;;3.49;71.04;98524.44;5053446;28;20489;-80
2021/01/25 09:23:04;;;;;;;22.05;13.27;;;;;;;3.52;70.95;98532.13;5035958;28;20049;-79
2021/01/25 09:25:31;;;;;;;21.67;11.80;;;;;;;3.55;71.30;98541.53;5053571;28;20559;-79
2021/01/25 09:27:58;;;;;;;20.40;11.60;;;;;;;3.59;71.51;98537.88;5053726;28;20053;-79
2021/01/25 09:30:26;;;;;;;17.25;9.98;;;;;;;3.64;71.44;98548.91;5053275;28;20045;-79
2021/01/25 09:32:52;;;;;;;18.38;10.43;;;;;;;3.69;71.39;98549.50;5053474;28;20683;-79
2021/01/25 09:35:18;;;;;;;21.77;9.75;;;;;;;3.75;71.09;98554.44;5036030;28;20059;-80
2021/01/25 09:37:45;;;;;;;16.67;9.98;;;;;;;3.82;71.35;98559.34;5035662;28;20056;-79
2021/01/25 09:40:11;;;;;;;15.65;8.73;;;;;;;3.88;71.38;98556.41;5053228;28;20045;-79
2021/01/25 09:42:38;;;;;;;17.40;9.13;;;;;;;3.94;71.13;98557.88;5035976;28;20052;-80
2021/01/25 09:45:14;;;;;;;23.70;10.77;;;;;;;3.98;70.25;98560.28;5053657;28;20053;-80
2021/01/25 09:47:41;;;;;;;16.52;10.68;;;;;;;4.04;70.88;98562.56;5053297;28;20060;-80
2021/01/25 09:50:14;;;;;;;18.98;9.45;;;;;;;4.09;69.96;98574.50;5052862;28;20493;-80
2021/01/25 09:52:44;;;;;;;16.47;9.13;;;;;;;4.14;70.04;98581.19;5056137;28;20387;-80
2021/01/25 09:55:12;;;;;;;15.38;9.57;;;;;;;4.20;70.41;98579.19;5056844;28;20490;-80
2021/01/25 09:57:38;;;;;;;17.67;9.35;;;;;;;4.23;70.74;98584.25;5056706;28;20060;-80
2021/01/25 10:00:11;;;;;;;14.75;9.90;;;;;;;4.26;69.96;98578.91;5056724;28;20061;-80
2021/01/25 10:02:37;;;;;;;22.45;11.70;;;;;;;4.29;70.45;98581.34;5057190;28;20087;-80
2021/01/25 10:05:06;;;;;;;19.70;11.63;;;;;;;4.29;69.99;98587.41;5056598;28;20056;-80
2021/01/25 10:07:34;;;;;;;21.23;11.77;;;;;;;4.29;70.15;98595.22;5056656;28;20048;-80
2021/01/25 10:10:04;;;;;;;18.13;11.73;;;;;;;4.28;69.65;98593.53;5056602;28;20410;-80
2021/01/25 10:12:30;;;;;;;22.25;12.57;;;;;;;4.28;70.34;98596.13;5056512;28;20099;-80
2021/01/25 10:14:56;;;;;;;27.30;14.57;;;;;;;4.27;70.09;98599.63;5056484;28;20494;-80
2021/01/25 10:17:22;;;;;;;27.92;14.90;;;;;;;4.27;69.88;98601.41;5056809;28;20157;-80
2021/01/25 10:19:48;;;;;;;26.10;13.90;;;;;;;4.26;70.26;98603.16;5056856;28;20099;-80
2021/01/25 10:22:14;;;;;;;25.42;13.57;;;;;;;4.26;70.22;98599.75;5056802;28;20049;-80
2021/01/25 10:24:40;;;;;;;26.65;15.05;;;;;;;4.25;69.86;98609.31;5039197;28;20083;-80
2021/01/25 10:27:08;;;;;;;25.20;14.52;;;;;;;4.27;70.26;98609.25;5056958;28;20045;-80
2021/01/25 10:29:34;;;;;;;29.10;14.38;;;;;;;4.27;70.03;98607.47;5056387;28;20071;-80
2021/01/25 10:32:00;;;;;;;24.33;14.27;;;;;;;4.29;70.28;98616.06;5038809;28;20053;-80
2021/01/25 10:34:26;;;;;;;26.08;13.68;;;;;;;4.33;70.47;98621.13;5056676;28;20123;-81
2021/01/25 10:36:52;;;;;;;29.58;14.77;;;;;;;4.35;70.65;98622.72;5057202;28;20119;-80
2021/01/25 10:39:19;;;;;;;22.20;14.20;;;;;;;4.41;70.66;98632.00;5057785;28;20053;-80
2021/01/25 10:41:45;;;;;;;21.90;13.30;;;;;;;4.48;70.35;98630.75;5039439;28;20401;-80
2021/01/25 10:44:15;;;;;;;22.55;13.43;;;;;;;4.53;70.74;98633.16;5057654;28;20061;-80
2021/01/25 10:46:42;;;;;;;22.10;13.30;;;;;;;4.59;70.78;98629.41;5057272;28;20049;-80
2021/01/25 10:49:08;;;;;;;21.83;14.50;;;;;;;4.65;70.60;98636.88;5056681;28;20049;-81
2021/01/25 11:13:23;;;;;;;20.73;12.98;;;;;;;5.74;71.32;98649.47;5033429;28;20061;-81
2021/01/25 11:54:14;;;;;;;11.03;8.73;;;;;;;12.49;69.51;98666.09;5072659;28;20311;-86
2021/01/25 12:00:40;;;;;;;11.88;8.50;;;;;;;13.94;68.14;98665.28;4983652;28;20052;-86
2021/01/25 12:03:14;;;;;;;14.23;9.27;;;;;;;14.53;66.77;98667.16;5045163;23;20119;-80
2021/01/25 12:05:41;;;;;;;12.13;9.27;;;;;;;14.97;65.05;98674.66;5014155;28;20077;-80
2021/01/25 12:08:07;;;;;;;17.98;10.90;;;;;;;15.36;62.89;98668.41;5013405;28;20052;-81
2021/01/25 12:10:34;;;;;;;13.10;10.00;;;;;;;15.69;62.04;98673.28;5014037;28;20116;-82
2021/01/25 12:13:00;;;;;;;13.82;9.52;;;;;;;15.96;60.54;98679.56;5013943;28;20568;-81
2021/01/25 12:15:26;;;;;;;12.85;9.52;;;;;;;16.17;59.30;98683.78;5013513;28;20065;-80
2021/01/25 12:17:56;;;;;;;11.88;9.20;;;;;;;16.33;58.79;98674.31;5014349;28;20104;-82
2021/01/25 12:20:22;;;;;;;12.10;9.25;;;;;;;16.44;57.88;98681.22;5013978;28;20053;-81
2021/01/25 12:22:48;;;;;;;12.07;9.50;;;;;;;16.53;56.85;98683.78;5013579;28;20045;-81
2021/01/25 12:25:14;;;;;;;12.30;9.10;;;;;;;16.62;57.52;98673.22;5012755;28;20057;-82
2021/01/25 12:27:40;;;;;;;14.95;8.98;;;;;;;16.71;56.91;98677.59;5013922;28;20049;-81
2021/01/25 12:30:07;;;;;;;12.38;8.43;;;;;;;16.84;56.54;98679.03;5013743;28;20049;-81
2021/01/25 12:32:34;;;;;;;10.20;8.13;;;;;;;16.99;57.16;98674.00;5013678;28;20061;-82
2021/01/25 12:35:00;;;;;;;8.25;7.25;;;;;;;17.16;56.63;98674.97;5013649;28;20049;-81
2021/01/25 12:37:27;;;;;;;10.65;7.20;;;;;;;17.36;55.93;98674.75;5013865;28;20054;-82
2021/01/25 12:39:53;;;;;;;11.82;7.30;;;;;;;17.54;55.32;98683.47;5013747;28;20046;-81